Time;durP1;ratioP1;P1;durP2;ratioP2;P2;SDS_P1;SDS_P2;PMS_P1;PMS_P2;Temp;Humidity;BMP_temperature;BMP_pressure;BME280_temperature;BME280_humidity;BME280_pressure;Samples;Min_cycle;Max_cycle;Signal;HPM_P1;HPM_P2
2022/10/16 00:01:38;;;;;;;7.17;2.50;;;;;;;;;;5040453;28;20033;-77
2022/10/16 00:04:05;;;;;;;4.43;2.03;;;;;;;;;;5040470;28;20448;-78
2022/10/16 00:06:33;;;;;;;3.43;2.10;;;;;;;;;;5040526;28;20441;-77
2022/10/16 00:08:59;;;;;;;2.07;1.53;;;;;;;;;;5040207;28;20361;-77
2022/10/16 00:11:27;;;;;;;2.53;1.60;;;;;;;;;;5040646;28;20171;-77
2022/10/16 00:13:56;;;;;;;3.63;1.37;;;;;;;;;;5040339;28;20043;-77
2022/10/16 00:16:22;;;;;;;2.97;1.70;;;;;;;;;;5040115;28;20361;-77
2022/10/16 00:18:48;;;;;;;1.40;1.00;;;;;;;;;;5040903;28;20116;-77
2022/10/16 00:21:19;;;;;;;4.57;1.80;;;;;;;;;;5040549;28;20028;-78
2022/10/16 00:23:47;;;;;;;4.27;1.50;;;;;;;;;;5034843;28;20029;-78
2022/10/16 00:26:16;;;;;;;2.33;1.40;;;;;;;;;;5040281;28;20033;-78
2022/10/16 00:28:42;;;;;;;3.43;1.23;;;;;;;;;;5040277;28;20083;-78
2022/10/16 00:31:10;;;;;;;1.70;1.23;;;;;;;;;;5058141;28;20025;-78
2022/10/16 00:33:36;;;;;;;4.40;1.50;;;;;;;;;;5058592;28;20099;-77
2022/10/16 00:36:03;;;;;;;1.83;1.50;;;;;;;;;;5041025;28;20094;-79
2022/10/16 00:38:29;;;;;;;3.47;1.20;;;;;;;;;;5042442;28;20033;-79
2022/10/16 00:40:57;;;;;;;3.30;1.30;;;;;;;;;;5040193;28;20323;-78
2022/10/16 00:43:34;;;;;;;3.67;1.57;;;;;;;;;;5039783;28;20021;-77
2022/10/16 00:46:01;;;;;;;1.90;1.77;;;;;;;;;;5039897;28;20040;-78
2022/10/16 00:48:27;;;;;;;2.77;1.90;;;;;;;;;;5039614;28;20043;-78
2022/10/16 00:50:53;;;;;;;2.50;1.57;;;;;;;;;;5039767;28;20615;-79
2022/10/16 00:53:19;;;;;;;2.10;1.90;;;;;;;;;;5039826;28;20426;-78
2022/10/16 00:55:46;;;;;;;3.83;1.80;;;;;;;;;;5039699;28;20029;-78
2022/10/16 00:58:12;;;;;;;5.23;1.60;;;;;;;;;;5055533;28;20025;-78
2022/10/16 01:00:38;;;;;;;2.80;2.27;;;;;;;;;;5027486;28;20048;-78
2022/10/16 01:03:23;;;;;;;3.50;1.73;;;;;;;;;;5039370;28;20048;-78
2022/10/16 01:06:07;;;;;;;10.40;3.13;;;;;;;;;;5043896;28;20029;-78
2022/10/16 01:08:50;;;;;;;3.03;1.87;;;;;;;;;;5039131;28;20409;-78
2022/10/16 01:11:18;;;;;;;3.13;2.05;;;;;;;;;;5039105;28;20037;-78
2022/10/16 01:13:50;;;;;;;5.83;2.40;;;;;;;;;;5039563;28;20441;-78
2022/10/16 01:16:26;;;;;;;3.88;2.63;;;;;;;;;;5039563;28;20024;-77
2022/10/16 01:18:55;;;;;;;3.73;2.50;;;;;;;;;;5039352;28;20025;-78
2022/10/16 01:21:33;;;;;;;2.43;2.10;;;;;;;;;;5039326;28;20083;-77
2022/10/16 01:24:02;;;;;;;2.93;1.97;;;;;;;;;;5038587;28;20087;-79
2022/10/16 01:26:50;;;;;;;6.83;2.60;;;;;;;;;;5038852;28;20441;-78
2022/10/16 01:29:16;;;;;;;3.17;2.27;;;;;;;;;;5039002;28;20024;-78
2022/10/16 01:31:46;;;;;;;5.93;2.93;;;;;;;;;;5039655;28;20033;-78
2022/10/16 01:34:14;;;;;;;3.47;2.73;;;;;;;;;;5038549;28;20383;-78
2022/10/16 01:36:46;;;;;;;4.73;2.63;;;;;;;;;;5032715;28;20037;-77
2022/10/16 01:39:15;;;;;;;3.97;2.10;;;;;;;;;;5031549;28;20025;-77
2022/10/16 01:41:44;;;;;;;2.33;2.13;;;;;;;;;;5031359;28;20069;-77
2022/10/16 01:44:25;;;;;;;3.63;2.03;;;;;;;;;;5026821;28;20037;-77
2022/10/16 01:46:52;;;;;;;2.97;2.00;;;;;;;;;;5049736;28;20475;-78
2022/10/16 01:49:19;;;;;;;2.53;2.10;;;;;;;;;;5034895;28;20036;-77
2022/10/16 01:51:46;;;;;;;2.13;1.90;;;;;;;;;;5031503;28;20033;-77
2022/10/16 01:54:14;;;;;;;2.37;1.63;;;;;;;;;;5032015;28;20123;-78
2022/10/16 01:56:43;;;;;;;2.23;1.93;;;;;;;;;;5033970;28;20029;-78
2022/10/16 01:59:14;;;;;;;3.13;1.63;;;;;;;;;;5031964;28;20380;-77
2022/10/16 02:01:42;;;;;;;4.00;1.40;;;;;;;;;;5033699;28;21733;-77
2022/10/16 02:04:13;;;;;;;2.17;1.60;;;;;;;;;;5033784;28;20438;-77
2022/10/16 02:06:39;;;;;;;3.53;1.60;;;;;;;;;;5034339;28;20025;-77
2022/10/16 02:09:05;;;;;;;2.17;1.50;;;;;;;;;;5049946;28;20026;-76
2022/10/16 02:11:31;;;;;;;1.83;1.33;;;;;;;;;;5032680;28;20350;-77
2022/10/16 02:14:01;;;;;;;2.27;1.30;;;;;;;;;;5050114;28;20036;-77
2022/10/16 02:16:34;;;;;;;2.37;1.50;;;;;;;;;;5032163;28;20091;-77
2022/10/16 02:19:00;;;;;;;1.33;1.23;;;;;;;;;;5043573;28;20365;-77
2022/10/16 02:21:31;;;;;;;2.37;2.10;;;;;;;;;;5045185;28;20064;-77
2022/10/16 02:24:23;;;;;;;2.53;2.17;;;;;;;;;;5027864;28;20041;-78
2022/10/16 02:26:52;;;;;;;2.08;1.88;;;;;;;;;;4995654;28;20065;-77
2022/10/16 02:29:23;;;;;;;3.63;2.20;;;;;;;;;;5035710;28;20033;-78
2022/10/16 02:31:53;;;;;;;1.90;1.80;;;;;;;;;;5048417;28;20976;-78
2022/10/16 02:34:25;;;;;;;3.00;1.83;;;;;;;;;;5034201;28;20030;-77
2022/10/16 02:36:51;;;;;;;4.43;1.85;;;;;;;;;;5051606;28;20032;-77
2022/10/16 02:39:20;;;;;;;3.27;1.80;;;;;;;;;;5036943;28;20021;-77
2022/10/16 02:41:46;;;;;;;2.13;1.77;;;;;;;;;;5031401;28;20049;-78
2022/10/16 02:44:12;;;;;;;4.80;2.37;;;;;;;;;;5031435;28;20039;-77
2022/10/16 02:46:38;;;;;;;2.53;2.10;;;;;;;;;;5051800;28;20032;-77
2022/10/16 02:49:07;;;;;;;4.47;2.40;;;;;;;;;;5028929;28;20025;-77
2022/10/16 02:51:33;;;;;;;4.47;1.90;;;;;;;;;;5031142;28;20044;-77
2022/10/16 02:53:59;;;;;;;2.40;2.20;;;;;;;;;;5050749;28;20017;-78
2022/10/16 02:56:25;;;;;;;3.00;2.53;;;;;;;;;;5031033;28;20029;-78
2022/10/16 02:58:51;;;;;;;3.57;2.10;;;;;;;;;;5049494;28;20025;-77
2022/10/16 03:01:17;;;;;;;6.07;3.10;;;;;;;;;;5049891;28;20025;-77
2022/10/16 03:03:43;;;;;;;2.67;2.33;;;;;;;;;;5029537;28;20094;-78
2022/10/16 03:06:12;;;;;;;3.10;1.97;;;;;;;;;;5050122;28;20103;-77
2022/10/16 03:08:38;;;;;;;2.93;2.03;;;;;;;;;;5047359;28;20028;-77
2022/10/16 03:11:05;;;;;;;2.83;2.13;;;;;;;;;;5033356;28;20056;-77
2022/10/16 03:13:33;;;;;;;2.67;2.10;;;;;;;;;;5033767;28;20029;-78
2022/10/16 03:15:59;;;;;;;5.53;4.17;;;;;;;;;;5033729;28;20021;-77
2022/10/16 03:18:25;;;;;;;5.37;2.90;;;;;;;;;;5045340;28;20029;-77
2022/10/16 03:20:51;;;;;;;1.90;1.73;;;;;;;;;;5031877;28;20086;-77
2022/10/16 03:23:18;;;;;;;4.63;2.80;;;;;;;;;;5050908;28;20052;-77
2022/10/16 03:25:46;;;;;;;4.17;2.93;;;;;;;;;;5028287;28;20044;-78
2022/10/16 03:28:12;;;;;;;5.27;2.40;;;;;;;;;;5049574;28;20087;-78
2022/10/16 03:30:39;;;;;;;2.40;2.10;;;;;;;;;;5036664;28;20048;-78
2022/10/16 03:33:05;;;;;;;3.63;2.10;;;;;;;;;;5036671;28;20120;-77
2022/10/16 03:35:34;;;;;;;3.43;1.97;;;;;;;;;;5035093;28;20040;-78
2022/10/16 03:38:00;;;;;;;3.77;2.40;;;;;;;;;;5038433;28;20033;-78
2022/10/16 03:40:26;;;;;;;4.43;2.40;;;;;;;;;;5049743;28;20450;-77
2022/10/16 03:42:55;;;;;;;2.70;1.80;;;;;;;;;;5058937;28;20035;-77
2022/10/16 03:45:21;;;;;;;4.53;1.70;;;;;;;;;;5041262;28;20024;-78
2022/10/16 03:47:47;;;;;;;2.87;1.90;;;;;;;;;;5058583;28;20029;-78
2022/10/16 03:50:13;;;;;;;3.40;1.43;;;;;;;;;;5041476;28;20448;-78
2022/10/16 03:52:42;;;;;;;5.87;2.23;;;;;;;;;;5040896;28;20032;-78
2022/10/16 03:55:08;;;;;;;6.03;1.50;;;;;;;;;;5040727;28;20021;-77
2022/10/16 03:57:34;;;;;;;3.73;1.60;;;;;;;;;;5040964;28;20025;-77
2022/10/16 04:00:00;;;;;;;5.83;1.80;;;;;;;;;;5057747;28;20021;-78
2022/10/16 04:02:28;;;;;;;2.13;1.67;;;;;;;;;;5040631;28;20029;-78
2022/10/16 04:04:54;;;;;;;3.63;1.80;;;;;;;;;;5040410;28;20029;-77
2022/10/16 04:07:20;;;;;;;4.40;1.20;;;;;;;;;;5040651;28;20484;-77
2022/10/16 04:09:46;;;;;;;5.37;1.60;;;;;;;;;;5040517;28;20108;-77
2022/10/16 04:12:12;;;;;;;2.13;1.27;;;;;;;;;;5039932;28;20040;-77
2022/10/16 04:14:38;;;;;;;2.57;1.37;;;;;;;;;;5040217;28;20021;-78
2022/10/16 04:17:04;;;;;;;3.07;1.70;;;;;;;;;;5040202;28;20040;-79
2022/10/16 04:19:30;;;;;;;3.73;1.67;;;;;;;;;;5040496;28;20032;-79
2022/10/16 04:21:56;;;;;;;3.23;1.70;;;;;;;;;;5040406;28;20036;-78
2022/10/16 04:24:22;;;;;;;2.80;1.50;;;;;;;;;;5040573;28;20068;-79
2022/10/16 04:26:49;;;;;;;2.87;1.37;;;;;;;;;;5040770;28;20453;-77
2022/10/16 04:29:15;;;;;;;2.67;1.90;;;;;;;;;;5040528;28;20429;-78
2022/10/16 04:31:41;;;;;;;4.27;2.40;;;;;;;;;;5040834;28;20037;-78
2022/10/16 04:34:07;;;;;;;2.73;1.63;;;;;;;;;;5039801;28;20111;-78
2022/10/16 04:36:33;;;;;;;3.27;1.47;;;;;;;;;;5040064;28;20035;-77
2022/10/16 04:38:59;;;;;;;2.80;1.77;;;;;;;;;;5039418;28;20075;-78
2022/10/16 04:41:28;;;;;;;3.90;1.80;;;;;;;;;;5039767;28;20029;-78
2022/10/16 04:44:00;;;;;;;3.77;1.90;;;;;;;;;;5041001;28;20437;-78
2022/10/16 04:46:26;;;;;;;2.03;1.45;;;;;;;;;;5039955;28;20087;-78
2022/10/16 04:48:53;;;;;;;2.57;1.43;;;;;;;;;;5040062;28;20310;-77
2022/10/16 04:51:19;;;;;;;3.93;1.43;;;;;;;;;;5036236;28;20040;-77
2022/10/16 04:53:45;;;;;;;5.77;1.97;;;;;;;;;;5029898;28;20644;-77
2022/10/16 04:56:11;;;;;;;6.37;2.03;;;;;;;;;;5057381;28;20107;-78
2022/10/16 04:58:37;;;;;;;3.20;1.20;;;;;;;;;;5036766;28;20029;-78
2022/10/16 05:01:03;;;;;;;4.57;1.43;;;;;;;;;;5051238;28;20029;-78
2022/10/16 05:03:29;;;;;;;6.63;1.73;;;;;;;;;;5042331;28;20029;-78
2022/10/16 05:05:56;;;;;;;3.23;1.57;;;;;;;;;;5040103;28;20033;-78
2022/10/16 05:08:22;;;;;;;3.03;2.17;;;;;;;;;;5057332;28;20365;-78
2022/10/16 05:10:48;;;;;;;2.20;2.00;;;;;;;;;;5041198;28;20056;-78
2022/10/16 05:13:14;;;;;;;7.53;1.67;;;;;;;;;;5040012;28;20029;-78
2022/10/16 05:15:40;;;;;;;4.23;1.50;;;;;;;;;;5057090;28;20036;-78
2022/10/16 05:18:06;;;;;;;4.00;1.50;;;;;;;;;;5039950;28;20053;-78
2022/10/16 05:20:33;;;;;;;3.93;2.73;;;;;;;;;;5044962;28;20075;-78
2022/10/16 05:22:59;;;;;;;4.77;1.63;;;;;;;;;;5039482;28;20408;-78
2022/10/16 05:25:25;;;;;;;2.10;1.80;;;;;;;;;;5039537;28;20094;-79
2022/10/16 05:27:51;;;;;;;7.03;1.80;;;;;;;;;;5049224;28;20025;-79
2022/10/16 05:30:20;;;;;;;3.63;1.90;;;;;;;;;;5026495;28;20059;-78
2022/10/16 05:32:47;;;;;;;3.13;1.47;;;;;;;;;;5035824;28;20053;-78
2022/10/16 05:35:13;;;;;;;2.90;1.80;;;;;;;;;;5034136;28;20063;-78
2022/10/16 05:37:39;;;;;;;3.83;1.33;;;;;;;;;;5038670;28;20037;-78
2022/10/16 05:40:06;;;;;;;3.53;1.77;;;;;;;;;;5038702;28;20051;-78
2022/10/16 05:42:32;;;;;;;4.67;1.63;;;;;;;;;;5055919;28;20033;-78
2022/10/16 05:44:58;;;;;;;5.67;2.00;;;;;;;;;;5056102;28;20032;-78
2022/10/16 05:47:24;;;;;;;4.63;1.50;;;;;;;;;;5022253;28;20534;-77
2022/10/16 05:49:50;;;;;;;6.20;2.10;;;;;;;;;;5037558;28;20123;-78
2022/10/16 05:52:17;;;;;;;1.70;1.60;;;;;;;;;;5055747;28;20036;-78
2022/10/16 05:54:45;;;;;;;2.87;2.00;;;;;;;;;;5055919;28;20391;-79
2022/10/16 05:57:11;;;;;;;8.87;1.90;;;;;;;;;;5038510;28;20101;-78
2022/10/16 05:59:38;;;;;;;3.60;1.73;;;;;;;;;;5038335;28;20443;-78
2022/10/16 06:02:04;;;;;;;2.90;1.90;;;;;;;;;;5038500;28;20033;-78
2022/10/16 06:04:30;;;;;;;2.67;1.70;;;;;;;;;;5038324;28;20033;-79
2022/10/16 06:07:00;;;;;;;6.77;2.60;;;;;;;;;;5038636;28;20025;-78
2022/10/16 06:09:28;;;;;;;5.83;2.60;;;;;;;;;;5038146;28;20457;-78
2022/10/16 06:11:54;;;;;;;2.10;1.70;;;;;;;;;;5055523;28;20024;-78
2022/10/16 06:14:20;;;;;;;9.57;2.47;;;;;;;;;;5028023;28;20017;-79
2022/10/16 06:16:46;;;;;;;2.47;2.07;;;;;;;;;;5036143;28;20025;-78
2022/10/16 06:19:12;;;;;;;3.17;2.03;;;;;;;;;;5037972;28;20040;-78
2022/10/16 06:21:38;;;;;;;3.73;2.50;;;;;;;;;;5037483;28;20033;-77
2022/10/16 06:24:04;;;;;;;4.17;2.00;;;;;;;;;;5025020;28;20174;-78
2022/10/16 06:26:31;;;;;;;3.10;1.97;;;;;;;;;;5055946;28;20021;-79
2022/10/16 06:28:58;;;;;;;6.30;2.30;;;;;;;;;;5038058;28;20052;-78
2022/10/16 06:31:28;;;;;;;7.47;2.30;;;;;;;;;;5037736;28;20510;-78
2022/10/16 06:33:57;;;;;;;5.37;1.77;;;;;;;;;;5055570;28;20031;-77
2022/10/16 06:36:24;;;;;;;3.93;1.47;;;;;;;;;;5041495;28;20029;-78
2022/10/16 06:38:50;;;;;;;2.00;1.40;;;;;;;;;;5038195;28;20032;-78
2022/10/16 06:41:18;;;;;;;3.47;1.63;;;;;;;;;;5038209;28;20029;-78
2022/10/16 06:43:45;;;;;;;5.80;1.40;;;;;;;;;;5038074;28;20052;-78
2022/10/16 06:46:12;;;;;;;4.53;1.47;;;;;;;;;;5037736;28;20029;-78
2022/10/16 06:48:38;;;;;;;6.93;1.10;;;;;;;;;;5038096;28;20035;-78
2022/10/16 06:51:06;;;;;;;1.23;1.00;;;;;;;;;;5054962;28;20460;-78
2022/10/16 06:53:34;;;;;;;1.53;1.00;;;;;;;;;;5037909;28;20029;-79
2022/10/16 06:56:10;;;;;;;2.63;1.17;;;;;;;;;;5054888;28;20345;-78
2022/10/16 06:58:37;;;;;;;2.17;1.00;;;;;;;;;;5030736;28;20032;-78
2022/10/16 07:01:05;;;;;;;4.53;1.33;;;;;;;;;;5037641;28;20045;-78
2022/10/16 07:03:32;;;;;;;1.58;1.00;;;;;;;;;;5041663;28;20095;-78
2022/10/16 07:06:02;;;;;;;1.65;0.90;;;;;;;;;;5041500;28;20040;-78
2022/10/16 07:08:28;;;;;;;3.78;1.80;;;;;;;;;;5042716;28;20560;-78
2022/10/16 07:11:04;;;;;;;2.97;1.20;;;;;;;;;;5059293;28;20025;-79
2022/10/16 07:13:30;;;;;;;2.00;1.30;;;;;;;;;;5042241;28;20116;-78
2022/10/16 07:15:56;;;;;;;5.47;1.38;;;;;;;;;;5041913;28;20025;-78
2022/10/16 07:18:26;;;;;;;2.92;1.00;;;;;;;;;;5042103;28;20032;-79
2022/10/16 07:20:52;;;;;;;3.20;1.23;;;;;;;;;;5058972;28;20120;-79
2022/10/16 07:23:18;;;;;;;2.05;1.15;;;;;;;;;;5041365;28;20040;-79
2022/10/16 07:25:46;;;;;;;1.65;1.10;;;;;;;;;;5041579;28;20032;-79
2022/10/16 07:28:12;;;;;;;1.95;1.15;;;;;;;;;;5041439;28;20037;-78
2022/10/16 07:30:38;;;;;;;1.33;1.13;;;;;;;;;;5041768;28;20349;-78
2022/10/16 07:33:04;;;;;;;2.25;1.33;;;;;;;;;;5040031;28;20025;-79
2022/10/16 07:35:32;;;;;;;2.78;1.45;;;;;;;;;;5040966;28;20017;-78
2022/10/16 07:37:58;;;;;;;4.03;1.50;;;;;;;;;;5052695;28;20033;-78
2022/10/16 07:40:26;;;;;;;3.60;2.00;;;;;;;;;;5036092;28;20040;-78
2022/10/16 07:42:53;;;;;;;2.92;2.38;;;;;;;;;;5034837;28;20029;-77
2022/10/16 07:45:19;;;;;;;3.05;2.22;;;;;;;;;;5036858;28;20111;-78
2022/10/16 07:47:45;;;;;;;3.75;1.88;;;;;;;;;;5035937;28;20037;-78
2022/10/16 07:50:11;;;;;;;4.30;1.50;;;;;;;;;;5035650;28;20028;-78
2022/10/16 07:52:37;;;;;;;1.52;1.05;;;;;;;;;;5032707;28;20032;-78
2022/10/16 07:55:03;;;;;;;2.65;1.63;;;;;;;;;;5050772;28;20029;-78
2022/10/16 07:57:29;;;;;;;3.08;1.40;;;;;;;;;;5032321;28;20100;-78
2022/10/16 07:59:57;;;;;;;5.00;1.35;;;;;;;;;;5053420;28;20658;-77
2022/10/16 08:02:23;;;;;;;7.03;1.20;;;;;;;;;;5045490;28;20033;-76
2022/10/16 08:04:50;;;;;;;3.60;1.55;;;;;;;;;;5034427;28;20091;-78
2022/10/16 08:07:16;;;;;;;2.97;2.20;;;;;;;;;;5034705;28;20036;-78
2022/10/16 08:09:42;;;;;;;4.60;2.22;;;;;;;;;;5033465;28;20060;-77
2022/10/16 08:12:10;;;;;;;6.82;1.92;;;;;;;;;;5033805;28;20037;-78
2022/10/16 08:14:36;;;;;;;3.28;1.70;;;;;;;;;;5034895;28;20044;-78
2022/10/16 08:17:03;;;;;;;3.92;1.35;;;;;;;;;;5032813;28;20140;-77
2022/10/16 08:19:31;;;;;;;3.58;1.20;;;;;;;;;;5036727;28;20048;-79
2022/10/16 08:21:57;;;;;;;6.97;1.48;;;;;;;;;;5037641;28;20059;-79
2022/10/16 08:24:23;;;;;;;2.75;1.27;;;;;;;;;;5038253;28;20066;-78
2022/10/16 08:26:49;;;;;;;2.08;0.88;;;;;;;;;;5034975;28;20082;-80
2022/10/16 08:29:15;;;;;;;6.00;1.10;;;;;;;;;;5037471;28;20925;-79
2022/10/16 08:31:41;;;;;;;3.72;0.90;;;;;;;;;;5041052;28;20493;-79
2022/10/16 08:34:07;;;;;;;3.42;0.90;;;;;;;;;;5039793;28;20048;-77
2022/10/16 08:36:33;;;;;;;1.55;0.70;;;;;;;;;;5032089;28;20040;-77
2022/10/16 08:38:59;;;;;;;2.22;0.75;;;;;;;;;;5029925;28;20064;-77
2022/10/16 08:41:38;;;;;;;3.15;1.15;;;;;;;;;;5047106;28;20037;-77
2022/10/16 08:44:23;;;;;;;2.45;0.60;;;;;;;;;;5029287;28;20033;-77
2022/10/16 08:46:52;;;;;;;2.97;1.15;;;;;;;;;;5027103;28;20047;-76
2022/10/16 08:49:18;;;;;;;2.08;0.90;;;;;;;;;;5030039;28;20037;-78
2022/10/16 08:51:46;;;;;;;2.65;1.00;;;;;;;;;;5031766;28;20040;-77
2022/10/16 08:54:15;;;;;;;1.73;0.80;;;;;;;;;;5031154;28;20033;-78
2022/10/16 08:56:41;;;;;;;2.00;0.80;;;;;;;;;;5030382;28;20036;-77
2022/10/16 08:59:11;;;;;;;2.60;1.02;;;;;;;;;;5034049;28;20041;-77
2022/10/16 09:01:43;;;;;;;3.08;0.85;;;;;;;;;;5047029;28;20051;-75
2022/10/16 09:04:12;;;;;;;3.15;0.85;;;;;;;;;;5048751;28;20032;-79
2022/10/16 09:06:47;;;;;;;1.98;0.70;;;;;;;;;;5032144;28;20032;-75
2022/10/16 09:09:19;;;;;;;6.55;0.98;;;;;;;;;;5028838;28;20033;-77
2022/10/16 09:11:51;;;;;;;7.88;0.88;;;;;;;;;;5026479;28;20041;-75
2022/10/16 09:14:43;;;;;;;1.45;0.75;;;;;;;;;;5026611;28;20747;-75
2022/10/16 09:17:13;;;;;;;1.50;0.57;;;;;;;;;;5039203;28;20130;-74
2022/10/16 09:19:42;;;;;;;2.05;0.47;;;;;;;;;;5030392;28;20090;-76
2022/10/16 09:22:14;;;;;;;1.13;0.50;;;;;;;;;;5048085;28;20025;-77
2022/10/16 09:24:40;;;;;;;5.03;0.60;;;;;;;;;;5029753;28;20040;-77
2022/10/16 09:27:14;;;;;;;3.60;0.60;;;;;;;;;;5045907;28;20029;-78
2022/10/16 09:29:42;;;;;;;1.80;0.43;;;;;;;;;;5049151;28;20025;-78
2022/10/16 09:32:13;;;;;;;1.38;0.40;;;;;;;;;;5049812;28;20028;-79
2022/10/16 09:34:42;;;;;;;3.53;0.50;;;;;;;;;;5047654;28;20057;-77
2022/10/16 09:37:11;;;;;;;3.35;0.63;;;;;;;;;;5030900;28;20091;-77
2022/10/16 09:39:48;;;;;;;1.58;0.40;;;;;;;;;;5030664;28;20064;-77
2022/10/16 09:42:15;;;;;;;1.33;0.45;;;;;;;;;;5037445;28;20032;-77
2022/10/16 09:44:44;;;;;;;3.88;0.70;;;;;;;;;;5049306;28;20048;-77
2022/10/16 09:47:13;;;;;;;2.38;0.80;;;;;;;;;;5038534;28;20033;-78
2022/10/16 09:49:39;;;;;;;3.85;0.50;;;;;;;;;;5055872;28;20025;-78
2022/10/16 09:52:06;;;;;;;1.98;0.38;;;;;;;;;;5055860;28;20380;-78
2022/10/16 09:54:32;;;;;;;3.65;0.45;;;;;;;;;;5055729;28;20039;-78
2022/10/16 09:57:05;;;;;;;3.25;0.50;;;;;;;;;;5037955;28;20109;-78
2022/10/16 09:59:31;;;;;;;2.75;0.40;;;;;;;;;;5054738;28;20708;-77
2022/10/16 10:02:03;;;;;;;4.32;0.52;;;;;;;;;;5036427;28;20036;-79
2022/10/16 10:04:38;;;;;;;5.65;0.88;;;;;;;;;;5056200;28;20044;-79
2022/10/16 10:07:04;;;;;;;1.13;0.32;;;;;;;;;;5038561;28;20024;-79
2022/10/16 10:09:33;;;;;;;1.63;0.50;;;;;;;;;;5057789;28;20033;-79
2022/10/16 10:11:59;;;;;;;2.63;0.60;;;;;;;;;;5038665;28;20025;-79
2022/10/16 10:14:33;;;;;;;1.20;0.50;;;;;;;;;;5039616;28;20032;-78
2022/10/16 10:17:22;;;;;;;4.65;0.40;;;;;;;;;;5039719;28;20514;-80
2022/10/16 10:19:53;;;;;;;2.63;0.40;;;;;;;;;;5028232;28;20037;-78
2022/10/16 10:22:25;;;;;;;0.68;0.38;;;;;;;;;;5035426;28;20030;-78
2022/10/16 10:25:00;;;;;;;2.85;0.40;;;;;;;;;;5035059;28;20033;-79
2022/10/16 10:27:38;;;;;;;6.38;0.82;;;;;;;;;;5032582;28;20041;-79
2022/10/16 10:30:10;;;;;;;2.45;0.68;;;;;;;;;;5038272;28;20024;-78
2022/10/16 10:33:02;;;;;;;0.28;0.20;;;;;;;;;;5038109;28;20048;-78
2022/10/16 10:35:35;;;;;;;3.75;0.40;;;;;;;;;;5039348;28;20051;-78
2022/10/16 10:38:03;;;;;;;2.38;0.77;;;;;;;;;;5055139;28;20104;-78
2022/10/16 10:40:35;;;;;;;1.27;0.47;;;;;;;;;;5037758;28;20025;-78
2022/10/16 10:43:07;;;;;;;2.22;0.38;;;;;;;;;;5037685;28;20017;-79
2022/10/16 10:45:45;;;;;;;1.73;0.45;;;;;;;;;;5055309;28;20150;-79
2022/10/16 10:48:23;;;;;;;4.88;0.95;;;;;;;;;;5029886;28;20045;-79
2022/10/16 10:50:58;;;;;;;1.83;0.50;;;;;;;;;;5044880;28;20098;-80
2022/10/16 10:53:33;;;;;;;2.83;0.40;;;;;;;;;;5032835;28;20021;-80
2022/10/16 10:56:15;;;;;;;2.22;0.40;;;;;;;;;;5038189;28;20060;-79
2022/10/16 10:58:48;;;;;;;1.42;0.47;;;;;;;;;;5029610;28;20037;-79
2022/10/16 11:01:14;;;;;;;;;;;;;;;;;;5038947;28;20464;-79
2022/10/16 11:03:40;;;;;;;1.75;0.50;;;;;;;;;;5038505;28;19908;-78
2022/10/16 11:06:08;;;;;;;0.75;0.50;;;;;;;;;;5036043;28;20030;-79
2022/10/16 11:08:37;;;;;;;1.27;0.30;;;;;;;;;;5038465;28;20048;-79
2022/10/16 11:11:09;;;;;;;0.50;0.40;;;;;;;;;;5041086;28;20171;-79
2022/10/16 11:13:38;;;;;;;1.80;0.35;;;;;;;;;;5037737;28;20442;-79
2022/10/16 11:16:14;;;;;;;1.30;0.32;;;;;;;;;;5038694;28;20087;-79
2022/10/16 11:18:57;;;;;;;1.83;0.43;;;;;;;;;;5036524;28;20045;-80
2022/10/16 11:21:24;;;;;;;1.60;0.45;;;;;;;;;;5038057;28;20437;-79
2022/10/16 11:24:07;;;;;;;2.28;0.60;;;;;;;;;;5038196;28;20442;-79
2022/10/16 11:26:40;;;;;;;0.77;0.50;;;;;;;;;;5044531;28;20032;-79
2022/10/16 11:29:10;;;;;;;1.52;0.20;;;;;;;;;;5061389;28;20021;-79
2022/10/16 11:31:45;;;;;;;1.08;0.20;;;;;;;;;;5040715;28;20044;-79
2022/10/16 11:34:22;;;;;;;0.70;0.35;;;;;;;;;;5042784;28;20049;-79
2022/10/16 11:36:54;;;;;;;1.23;0.30;;;;;;;;;;5041202;28;20041;-79
2022/10/16 11:39:20;;;;;;;;;;;;;;;;;;5040815;28;20048;-79
2022/10/16 11:42:12;;;;;;;1.13;0.32;;;;;;;;;;5050472;28;19904;-79
2022/10/16 11:44:47;;;;;;;3.20;0.60;;;;;;;;;;5028330;28;20477;-79
2022/10/16 11:47:32;;;;;;;3.80;0.73;;;;;;;;;;5054943;28;20438;-79
2022/10/16 11:50:07;;;;;;;2.65;0.40;;;;;;;;;;5061100;28;20027;-80
2022/10/16 11:52:37;;;;;;;1.35;0.32;;;;;;;;;;5046841;28;20066;-78
2022/10/16 11:55:14;;;;;;;1.55;0.25;;;;;;;;;;5040819;28;20095;-78
2022/10/16 11:57:43;;;;;;;3.45;0.20;;;;;;;;;;5041028;28;20025;-79
2022/10/16 12:00:22;;;;;;;2.72;0.43;;;;;;;;;;5055464;28;20025;-79
2022/10/16 12:03:07;;;;;;;1.35;0.20;;;;;;;;;;5044165;28;20044;-78
2022/10/16 12:05:51;;;;;;;1.65;0.22;;;;;;;;;;5045145;28;20024;-77
2022/10/16 12:08:20;;;;;;;0.47;0.30;;;;;;;;;;5039662;28;20024;-77
2022/10/16 12:10:47;;;;;;;0.52;0.20;;;;;;;;;;5039702;28;20039;-78
2022/10/16 12:13:29;;;;;;;2.25;0.32;;;;;;;;;;5039909;28;20037;-77
2022/10/16 12:16:24;;;;;;;4.13;0.23;;;;;;;;;;5040308;28;20044;-78
2022/10/16 12:18:50;;;;;;;1.17;0.20;;;;;;;;;;5009482;28;20361;-77
2022/10/16 12:21:19;;;;;;;0.85;0.22;;;;;;;;;;5057244;28;20056;-77
2022/10/16 12:23:51;;;;;;;0.88;0.40;;;;;;;;;;5039288;28;20025;-77
2022/10/16 12:26:30;;;;;;;1.25;0.40;;;;;;;;;;5039582;28;20108;-78
2022/10/16 12:29:13;;;;;;;1.88;0.25;;;;;;;;;;5057145;28;20024;-78
2022/10/16 12:31:44;;;;;;;1.85;0.40;;;;;;;;;;5039047;28;20025;-78
2022/10/16 12:34:25;;;;;;;1.17;0.30;;;;;;;;;;5045425;28;20013;-78
2022/10/16 12:36:51;;;;;;;64.72;24.67;;;;;;;;;;5056901;28;20052;-78
2022/10/16 12:39:24;;;;;;;63.78;25.63;;;;;;;;;;5040169;28;20460;-78
2022/10/16 12:42:26;;;;;;;37.33;14.85;;;;;;;;;;5040795;28;20668;-80
2022/10/16 12:44:52;;;;;;;7.05;2.55;;;;;;;;;;4945665;29;20483;-79
2022/10/16 12:47:24;;;;;;;2.42;0.55;;;;;;;;;;5037691;28;20049;-78
2022/10/16 12:49:54;;;;;;;4.43;0.77;;;;;;;;;;5058375;28;20039;-78
2022/10/16 12:52:38;;;;;;;1.95;0.30;;;;;;;;;;5053365;28;20446;-79
2022/10/16 12:55:07;;;;;;;5.72;0.68;;;;;;;;;;5033361;28;20022;-80
2022/10/16 12:57:36;;;;;;;7.07;0.40;;;;;;;;;;5056736;28;20032;-80
2022/10/16 13:00:26;;;;;;;0.60;0.20;;;;;;;;;;5059088;28;20017;-79
2022/10/16 13:03:03;;;;;;;2.70;0.35;;;;;;;;;;5029736;28;20033;-77
2022/10/16 13:05:35;;;;;;;1.30;0.25;;;;;;;;;;5030320;28;20029;-77
2022/10/16 13:08:01;;;;;;;;;;;;;;;;;;5055951;28;20021;-78
2022/10/16 13:10:34;;;;;;;0.60;0.20;;;;;;;;;;5038014;28;19954;-77
2022/10/16 13:13:19;;;;;;;3.20;0.60;;;;;;;;;;5055775;28;20083;-78
2022/10/16 13:15:53;;;;;;;3.70;0.47;;;;;;;;;;5047703;28;20495;-79
2022/10/16 13:18:22;;;;;;;0.73;0.30;;;;;;;;;;5038429;28;20643;-77
2022/10/16 13:20:51;;;;;;;0.82;0.30;;;;;;;;;;5056103;28;20021;-79
2022/10/16 13:23:17;;;;;;;1.75;0.30;;;;;;;;;;5035284;28;20028;-78
2022/10/16 13:25:46;;;;;;;1.63;0.28;;;;;;;;;;5037630;28;20048;-81
2022/10/16 13:28:13;;;;;;;2.53;0.60;;;;;;;;;;5035796;28;20024;-79
2022/10/16 13:30:41;;;;;;;1.60;0.32;;;;;;;;;;5030774;28;20036;-78
2022/10/16 13:33:10;;;;;;;1.10;0.25;;;;;;;;;;5035775;28;20380;-79
2022/10/16 13:35:37;;;;;;;3.00;0.40;;;;;;;;;;5046737;28;20527;-78
2022/10/16 13:38:13;;;;;;;3.30;0.70;;;;;;;;;;5044380;28;20556;-79
2022/10/16 13:40:48;;;;;;;1.65;0.30;;;;;;;;;;5030029;28;20043;-81
2022/10/16 13:43:14;;;;;;;2.30;0.63;;;;;;;;;;5028406;28;20040;-79
2022/10/16 13:45:40;;;;;;;1.33;0.30;;;;;;;;;;5046594;28;20036;-76
2022/10/16 13:48:12;;;;;;;1.38;0.30;;;;;;;;;;5028844;28;20205;-78
2022/10/16 13:50:41;;;;;;;0.95;0.35;;;;;;;;;;5029958;28;20437;-77
2022/10/16 13:53:12;;;;;;;1.60;0.30;;;;;;;;;;5040981;28;20100;-77
2022/10/16 13:55:38;;;;;;;1.60;0.68;;;;;;;;;;5027825;28;20029;-78
2022/10/16 13:58:05;;;;;;;2.15;0.63;;;;;;;;;;5028675;28;20039;-78
2022/10/16 14:00:32;;;;;;;1.85;0.60;;;;;;;;;;5042637;28;20080;-78
2022/10/16 14:03:03;;;;;;;1.52;0.50;;;;;;;;;;5026661;28;20124;-79
2022/10/16 14:05:30;;;;;;;1.75;0.30;;;;;;;;;;5023781;28;20044;-78
2022/10/16 14:07:59;;;;;;;0.80;0.20;;;;;;;;;;5026815;28;20458;-77
2022/10/16 14:10:27;;;;;;;1.27;0.30;;;;;;;;;;5026491;28;20032;-78
2022/10/16 14:12:58;;;;;;;1.58;0.30;;;;;;;;;;5026592;28;20049;-78
2022/10/16 14:15:27;;;;;;;0.80;0.40;;;;;;;;;;5042233;28;20928;-77
2022/10/16 14:17:53;;;;;;;0.65;0.20;;;;;;;;;;5043545;28;20366;-78
2022/10/16 14:20:21;;;;;;;1.27;0.20;;;;;;;;;;5026443;28;20651;-77
2022/10/16 14:22:47;;;;;;;2.38;0.65;;;;;;;;;;5027202;28;20130;-77
2022/10/16 14:25:19;;;;;;;1.95;0.60;;;;;;;;;;5046274;28;21660;-78
2022/10/16 14:27:45;;;;;;;1.27;0.40;;;;;;;;;;5028815;28;20044;-78
2022/10/16 14:30:14;;;;;;;2.60;0.43;;;;;;;;;;5027996;28;20029;-77
2022/10/16 14:32:42;;;;;;;1.45;0.32;;;;;;;;;;5028161;28;20020;-77
2022/10/16 14:35:23;;;;;;;2.17;0.38;;;;;;;;;;5041117;28;20376;-80
2022/10/16 14:37:51;;;;;;;1.00;0.30;;;;;;;;;;5027701;28;20166;-75
2022/10/16 14:40:18;;;;;;;0.63;0.38;;;;;;;;;;5024737;28;20039;-79
2022/10/16 14:42:44;;;;;;;1.77;0.52;;;;;;;;;;5027392;28;20033;-79
2022/10/16 14:45:11;;;;;;;1.48;0.47;;;;;;;;;;5031068;28;20021;-78
2022/10/16 14:47:47;;;;;;;1.15;0.40;;;;;;;;;;5024913;28;20055;-78
2022/10/16 14:50:13;;;;;;;1.00;0.60;;;;;;;;;;5026636;28;20029;-79
2022/10/16 14:52:39;;;;;;;0.80;0.40;;;;;;;;;;5030793;28;20021;-78
2022/10/16 14:55:05;;;;;;;0.90;0.40;;;;;;;;;;5046721;28;20020;-79
2022/10/16 14:57:34;;;;;;;0.68;0.40;;;;;;;;;;5028300;28;20025;-78